Monday, October 16, 2017, 6:01 PM EDT
Back to Local

KELM, Elmira County Airport

Location: Horseheads, NY, United States Lat: 42.167
Local Time: 6:01 PM EDT (22:01 GMT) Lon: -76.9
Time Zone: US/Eastern Elev: 954 ft

Show me the last for .
Show Decoded

2017-10-16 16:53 METAR KELM 162053Z 36009KT 10SM SCT046 BKN060 11/02 A3016 RMK AO2 SLP215
                 T01060022 53009 =
2017-10-16 15:53 METAR KELM 161953Z 33012G17KT 300V360 10SM BKN060 11/02 A3014 RMK AO2 SLP210
                 T01110017 =
2017-10-16 14:53 METAR KELM 161853Z AUTO 34011G17KT 10SM SCT050 OVC060 12/02 A3012 RMK AO2 SLP202
                 T01220022 =
2017-10-16 13:53 METAR KELM 161753Z 02006G20KT 10SM BKN047 OVC060 11/02 A3013 RMK AO2 SLP204
                 60000 T01060017 10117 20072 58003 =
2017-10-16 12:53 METAR KELM 161653Z 34004G14KT 10SM FEW036 OVC047 09/03 A3015 RMK AO2 SLP210
                 T00940028 =
2017-10-16 11:53 METAR KELM 161553Z VRB06KT 10SM FEW034 BKN043 10/04 A3014 RMK AO2 RAE01 SLP208
                 P0000 T01000039 =
2017-10-16 11:14 METAR KELM 161514Z 33013G18KT 10SM FEW020 SCT026 OVC040 08/03 A3014 RMK AO2
                 RAE01 P0000 T00830033 =
2017-10-16 11:05 METAR KELM 161505Z 31011G17KT 10SM SCT020 BKN025 OVC040 09/06 A3014 RMK AO2
                 RAE01 P0000 T00890056 =
2017-10-16 10:53 METAR KELM 161453Z 32006KT 9SM -RA FEW024 FEW031 OVC040 08/05 A3014 RMK AO2
                 RAB49 SLP207 P0000 60000 T00780050 51017 =
2017-10-16 09:53 METAR KELM 161353Z 31005KT 10SM OVC030 08/03 A3013 RMK AO2 SLP204 T00830033 =
2017-10-16 08:53 METAR KELM 161253Z VRB04KT 10SM OVC031 08/04 A3012 RMK AO2 SLP199 T00780044 =
2017-10-16 08:22 METAR KELM 161222Z VRB03KT 10SM OVC031 08/05 A3010 RMK AO2 T00780050 =
2017-10-16 07:53 METAR KELM 161153Z VRB04KT 10SM BKN025 OVC033 08/04 A3009 RMK AO2 RAE08 SLP189
                 P0000 60000 70017 T00780044 10128 20072 51022 =
2017-10-16 06:53 METAR KELM 161053Z 33007KT 6SM -RA BR FEW024 OVC032 07/05 A3007 RMK AO2 RAB47
                 SLP180 P0000 T00720050 =
2017-10-16 05:53 METAR KELM 160953Z 32009KT 10SM OVC036 08/05 A3005 RMK AO2 RAB0857E15 SLP174
                 P0000 T00830050 =
2017-10-16 04:53 METAR KELM 160853Z AUTO 33004KT 10SM FEW023 OVC034 08/07 A3002 RMK AO2
                 RAE06B20E53 SLP164 P0000 60000 T00830067 51021 =
2017-10-16 04:09 METAR KELM 160809Z AUTO 33007KT 10SM SCT022 SCT029 OVC040 09/07 A3000 RMK AO2
                 RAE06 P0000 T00890067 =
2017-10-16 03:53 METAR KELM 160753Z AUTO 34008KT 7SM -RA SCT021 BKN026 OVC036 09/07 A3000 RMK AO2
                 RAE03B43 SLP155 P0000 T00940067 =
2017-10-16 03:16 METAR KELM 160716Z AUTO 32006KT 10SM FEW023 BKN031 OVC040 11/07 A2999 RMK AO2
                 RAE03 P0000 T01060067 =
2017-10-16 02:53 METAR KELM 160653Z AUTO 32011KT 10SM -RA BKN026 BKN031 OVC039 11/07 A2998 RMK
                 AO2 RAB44 SLP150 P0000 T01060067 =
2017-10-16 01:53 METAR KELM 160553Z AUTO 30012KT 10SM BKN040 OVC046 13/07 A2995 RMK AO2 SLP140
                 60000 T01280072 10183 20128 53035 =
2017-10-16 00:53 METAR KELM 160453Z AUTO 32008KT 10SM SCT034 OVC045 14/08 A2992 RMK AO2 SLP127
                 T01390083 402560139 =
2017-10-15 23:53 METAR KELM 160353Z 30012G23KT 270V330 10SM FEW030 BKN048 OVC055 16/10 A2988 RMK
                 AO2 SLP114 T01560100 =
2017-10-15 22:53 METAR KELM 160253Z 28008KT 10SM FEW037 BKN050 17/12 A2985 RMK AO2 RAE02 SLP103
                 P0000 60000 T01670117 51033 =
2017-10-15 21:53 METAR KELM 160153Z 26008KT 10SM -RA BKN110 17/12 A2982 RMK AO2 RAE02B51 SLP094
                 P0000 T01720117 =
2017-10-15 21:02 METAR KELM 160102Z 29011G17KT 10SM SCT030 BKN044 OVC100 17/14 A2980 RMK AO2
                 RAE02 P0000 T01720144 =
2017-10-15 20:53 METAR KELM 160053Z 30007KT 250V330 10SM -RA BKN028 BKN046 OVC055 18/15 A2979 RMK
                 AO2 PK WND 33026/2359 RAB2356 SLP084 P0000 T01780150 =
2017-10-15 19:53 METAR KELM 152353Z 30013G20KT 10SM FEW025 BKN050 OVC080 18/16 A2975 RMK AO2 PK
                 WND 30036/2320 WSHFT 2318 RAB23E53 SLP070 P0017 60017 T01830161 10256 20183
                 53020 =
2017-10-15 19:46 METAR KELM 152346Z 31014G24KT 8SM -RA SCT031 BKN045 OVC055 18/17 A2974 RMK AO2
                 PK WND 30036/2320 WSHFT 2318 RAB23 P0017 T01830167 =
2017-10-15 19:36 METAR KELM 152336Z 31017G25KT 2SM +RA BR FEW018 BKN038 OVC050 19/17 A2973 RMK
                 AO2 PK WND 30036/2320 WSHFT 2318 RAB23 P0016 T01890172 =
2017-10-15 19:28 METAR KELM 152328Z 30012G36KT 1 3/4SM +RA BR SCT022 BKN048 OVC065 20/18 A2973
                 RMK AO2 PK WND 30036/2320 RAB23 P0012 T02000178 =
2017-10-15 18:53 METAR KELM 152253Z 22008KT 10SM FEW050 SCT060 OVC080 23/18 A2967 RMK AO2 SLP043
                 T02280178 =

Support USWX by starting your Amazon purchase here.